Harker Heights, Texas
Current Conditions -  °F | °C
As of 3:35 PM on Saturday 22 Nov 2014 (Local Time) from KILE Reporting Station
Thunderstorm Thunderstorm  
Wind Chill: 63°   Ceiling: 600
Heat Index: 63°   Visibility: 9mi
Dew Point: 57°   Wind: 7mph
Humidity: 82%   Direction: 80°E
Pressure: 29.8"   Gusts: NA
Location:  31.09°N, 97.66°W
Report Text: KILE 222135Z AUTO 08006KT 9SM VCTS BKN006 OVC012 17/14 A2980 RMK AO1 LTG DSNT ALQDS TSB34 P0011
Loading
Personal Weather Stations






























Interactive Weather Map New forecast layout! Learn more

10-Day Weather Forecast

Advertisements
Track Severe Weather on mobile